sensor_id;sensor_type;location;lat;lon;timestamp;pressure;altitude;pressure_sealevel;temperature;humidity
6393;BME280;3229;42.674;23.282;2023-04-07T00:00:23;94327.53;;;8.04;44.92
6393;BME280;3229;42.674;23.282;2023-04-07T00:02:50;94329.28;;;8.04;44.87
6393;BME280;3229;42.674;23.282;2023-04-07T00:05:17;94324.44;;;8.01;44.96
6393;BME280;3229;42.674;23.282;2023-04-07T00:07:43;94316.13;;;7.99;44.85
6393;BME280;3229;42.674;23.282;2023-04-07T00:10:10;94326.31;;;7.99;44.98
6393;BME280;3229;42.674;23.282;2023-04-07T00:12:37;94317.06;;;7.98;45.00
6393;BME280;3229;42.674;23.282;2023-04-07T00:15:05;94322.94;;;7.98;44.95
6393;BME280;3229;42.674;23.282;2023-04-07T00:17:33;94311.31;;;7.96;44.93
6393;BME280;3229;42.674;23.282;2023-04-07T00:20:00;94318.94;;;7.96;45.09
6393;BME280;3229;42.674;23.282;2023-04-07T00:22:27;94315.97;;;7.91;45.06
6393;BME280;3229;42.674;23.282;2023-04-07T00:24:53;94316.63;;;7.93;45.07
6393;BME280;3229;42.674;23.282;2023-04-07T00:27:20;94316.63;;;7.93;45.07
6393;BME280;3229;42.674;23.282;2023-04-07T00:29:47;94311.81;;;7.90;45.08
6393;BME280;3229;42.674;23.282;2023-04-07T00:32:14;94279.47;;;7.71;45.13
6393;BME280;3229;42.674;23.282;2023-04-07T00:34:43;94313.44;;;7.91;45.07
6393;BME280;3229;42.674;23.282;2023-04-07T00:37:09;94309.53;;;7.87;45.15
6393;BME280;3229;42.674;23.282;2023-04-07T00:39:36;94315.28;;;7.89;45.12
6393;BME280;3229;42.674;23.282;2023-04-07T00:42:03;94314.75;;;7.85;45.17
6393;BME280;3229;42.674;23.282;2023-04-07T00:44:31;94317.19;;;7.87;45.23
6393;BME280;3229;42.674;23.282;2023-04-07T00:46:58;94318.09;;;7.86;45.27
6393;BME280;3229;42.674;23.282;2023-04-07T00:49:24;94312.72;;;7.79;45.29
6393;BME280;3229;42.674;23.282;2023-04-07T00:51:54;94320.63;;;7.86;45.19
6393;BME280;3229;42.674;23.282;2023-04-07T00:54:22;94317.44;;;7.84;45.13
6393;BME280;3229;42.674;23.282;2023-04-07T00:56:49;94303.50;;;7.78;45.01
6393;BME280;3229;42.674;23.282;2023-04-07T00:59:16;94315.81;;;7.83;45.29
6393;BME280;3229;42.674;23.282;2023-04-07T01:01:45;94318.63;;;7.79;45.33
6393;BME280;3229;42.674;23.282;2023-04-07T01:04:19;94318.47;;;7.81;45.33
6393;BME280;3229;42.674;23.282;2023-04-07T01:06:50;94310.03;;;7.80;45.44
6393;BME280;3229;42.674;23.282;2023-04-07T01:09:24;94296.63;;;7.69;45.38
6393;BME280;3229;42.674;23.282;2023-04-07T01:11:58;94303.50;;;7.78;45.38
6393;BME280;3229;42.674;23.282;2023-04-07T01:14:31;94299.44;;;7.75;45.43
6393;BME280;3229;42.674;23.282;2023-04-07T01:17:02;94306.03;;;7.78;45.36
6393;BME280;3229;42.674;23.282;2023-04-07T01:19:35;94272.88;;;7.59;45.49
6393;BME280;3229;42.674;23.282;2023-04-07T01:22:09;94306.03;;;7.78;45.38
6393;BME280;3229;42.674;23.282;2023-04-07T01:24:56;94287.50;;;7.66;45.44
6393;BME280;3229;42.674;23.282;2023-04-07T01:27:35;94301.75;;;7.78;45.42
6393;BME280;3229;42.674;23.282;2023-04-07T01:30:09;94296.78;;;7.77;45.39
6393;BME280;3229;42.674;23.282;2023-04-07T01:32:39;94296.50;;;7.80;45.54
6393;BME280;3229;42.674;23.282;2023-04-07T01:35:11;94295.56;;;7.81;45.46
6393;BME280;3229;42.674;23.282;2023-04-07T01:37:40;94290.75;;;7.78;45.36
6393;BME280;3229;42.674;23.282;2023-04-07T01:40:07;94302.16;;;7.84;45.29
6393;BME280;3229;42.674;23.282;2023-04-07T01:42:37;94297.72;;;7.86;45.50
6393;BME280;3229;42.674;23.282;2023-04-07T01:45:07;94271.19;;;7.69;45.48
6393;BME280;3229;42.674;23.282;2023-04-07T01:47:35;94291.03;;;7.85;45.38
6393;BME280;3229;42.674;23.282;2023-04-07T01:50:04;94273.06;;;7.76;45.37
6393;BME280;3229;42.674;23.282;2023-04-07T01:52:34;94298.69;;;7.94;45.19
6393;BME280;3229;42.674;23.282;2023-04-07T01:55:01;94290.13;;;7.95;45.25
6393;BME280;3229;42.674;23.282;2023-04-07T01:57:28;94290.94;;;7.96;45.27
6393;BME280;3229;42.674;23.282;2023-04-07T01:59:55;94289.19;;;7.96;45.17
6393;BME280;3229;42.674;23.282;2023-04-07T02:02:23;94282.34;;;7.97;45.08
6393;BME280;3229;42.674;23.282;2023-04-07T02:04:53;94285.59;;;7.99;45.03
6393;BME280;3229;42.674;23.282;2023-04-07T02:07:26;94281.16;;;8.01;45.06
6393;BME280;3229;42.674;23.282;2023-04-07T02:09:57;94269.63;;;7.97;45.10
6393;BME280;3229;42.674;23.282;2023-04-07T02:12:26;94281.69;;;8.04;44.90
6393;BME280;3229;42.674;23.282;2023-04-07T02:14:55;94282.34;;;8.07;44.98
6393;BME280;3229;42.674;23.282;2023-04-07T02:17:24;94271.09;;;7.99;44.90
6393;BME280;3229;42.674;23.282;2023-04-07T02:19:52;94282.09;;;8.10;44.70
6393;BME280;3229;42.674;23.282;2023-04-07T02:22:21;94277.66;;;8.12;44.66
6393;BME280;3229;42.674;23.282;2023-04-07T02:24:48;94281.69;;;8.14;44.78
6393;BME280;3229;42.674;23.282;2023-04-07T02:27:16;94289.09;;;8.17;44.61
6393;BME280;3229;42.674;23.282;2023-04-07T02:29:42;94283.03;;;8.18;44.60
6393;BME280;3229;42.674;23.282;2023-04-07T02:32:09;94283.59;;;8.22;44.52
6393;BME280;3229;42.674;23.282;2023-04-07T02:34:37;94278.63;;;8.20;44.41
6393;BME280;3229;42.674;23.282;2023-04-07T02:37:04;94290.03;;;8.26;44.33
6393;BME280;3229;42.674;23.282;2023-04-07T02:39:31;94292.44;;;8.27;44.35
6393;BME280;3229;42.674;23.282;2023-04-07T02:41:58;94255.84;;;8.09;44.16
6393;BME280;3229;42.674;23.282;2023-04-07T02:44:25;94290.97;;;8.35;44.38
6393;BME280;3229;42.674;23.282;2023-04-07T02:46:52;94286.56;;;8.37;44.31
6393;BME280;3229;42.674;23.282;2023-04-07T02:49:18;94286.28;;;8.40;44.42
6393;BME280;3229;42.674;23.282;2023-04-07T02:51:47;94295.44;;;8.42;44.13
6393;BME280;3229;42.674;23.282;2023-04-07T02:54:13;94296.88;;;8.45;44.00
6393;BME280;3229;42.674;23.282;2023-04-07T02:56:40;94295.03;;;8.47;44.06
6393;BME280;3229;42.674;23.282;2023-04-07T02:59:07;94295.03;;;8.47;44.07
6393;BME280;3229;42.674;23.282;2023-04-07T03:01:34;94296.63;;;8.48;43.97
6393;BME280;3229;42.674;23.282;2023-04-07T03:04:01;94295.41;;;8.52;43.93
6393;BME280;3229;42.674;23.282;2023-04-07T03:06:27;94301.16;;;8.54;43.97
6393;BME280;3229;42.674;23.282;2023-04-07T03:08:55;94299.31;;;8.56;44.08
6393;BME280;3229;42.674;23.282;2023-04-07T03:11:22;94302.50;;;8.58;43.89
6393;BME280;3229;42.674;23.282;2023-04-07T03:13:49;94299.00;;;8.59;43.78
6393;BME280;3229;42.674;23.282;2023-04-07T03:16:16;94295.66;;;8.59;43.70
6393;BME280;3229;42.674;23.282;2023-04-07T03:18:43;94309.75;;;8.63;43.69
6393;BME280;3229;42.674;23.282;2023-04-07T03:21:09;94300.25;;;8.65;43.68
6393;BME280;3229;42.674;23.282;2023-04-07T03:23:36;94302.63;;;8.66;43.59
6393;BME280;3229;42.674;23.282;2023-04-07T03:26:04;94300.91;;;8.67;43.69
6393;BME280;3229;42.674;23.282;2023-04-07T03:28:31;94291.78;;;8.64;43.63
6393;BME280;3229;42.674;23.282;2023-04-07T03:30:58;94296.75;;;8.66;43.63
6393;BME280;3229;42.674;23.282;2023-04-07T03:33:25;94289.66;;;8.60;43.76
6393;BME280;3229;42.674;23.282;2023-04-07T03:35:51;94295.53;;;8.60;43.74
6393;BME280;3229;42.674;23.282;2023-04-07T03:38:18;94291.66;;;8.56;43.66
6393;BME280;3229;42.674;23.282;2023-04-07T03:40:45;94293.53;;;8.54;43.74
6393;BME280;3229;42.674;23.282;2023-04-07T03:43:14;94292.88;;;8.52;43.71
6393;BME280;3229;42.674;23.282;2023-04-07T03:45:41;94289.13;;;8.46;43.68
6393;BME280;3229;42.674;23.282;2023-04-07T03:48:07;94290.59;;;8.49;43.83
6393;BME280;3229;42.674;23.282;2023-04-07T03:50:36;94289.13;;;8.46;44.05
6393;BME280;3229;42.674;23.282;2023-04-07T03:53:03;94306.81;;;8.48;43.75
6393;BME280;3229;42.674;23.282;2023-04-07T03:55:30;94293.78;;;8.41;43.74
6393;BME280;3229;42.674;23.282;2023-04-07T03:57:57;94293.38;;;8.46;43.78
6393;BME280;3229;42.674;23.282;2023-04-07T04:00:25;94294.47;;;8.43;43.63
6393;BME280;3229;42.674;23.282;2023-04-07T04:02:52;94304.28;;;8.48;43.66
6393;BME280;3229;42.674;23.282;2023-04-07T04:05:19;94291.94;;;8.43;43.66
6393;BME280;3229;42.674;23.282;2023-04-07T04:07:46;94297.44;;;8.48;43.69
6393;BME280;3229;42.674;23.282;2023-04-07T04:10:13;94304.13;;;8.49;43.77
6393;BME280;3229;42.674;23.282;2023-04-07T04:12:40;94304.00;;;8.51;43.70
6393;BME280;3229;42.674;23.282;2023-04-07T04:15:08;94311.38;;;8.54;43.65
6393;BME280;3229;42.674;23.282;2023-04-07T04:17:36;94308.56;;;8.57;43.55
6393;BME280;3229;42.674;23.282;2023-04-07T04:20:04;94306.00;;;8.57;43.56
6393;BME280;3229;42.674;23.282;2023-04-07T04:22:31;94304.78;;;8.61;43.53
6393;BME280;3229;42.674;23.282;2023-04-07T04:24:58;94312.84;;;8.66;43.53
6393;BME280;3229;42.674;23.282;2023-04-07T04:27:25;94319.28;;;8.70;43.47
6393;BME280;3229;42.674;23.282;2023-04-07T04:29:52;94314.72;;;8.74;43.44
6393;BME280;3229;42.674;23.282;2023-04-07T04:32:19;94319.41;;;8.78;43.56
6393;BME280;3229;42.674;23.282;2023-04-07T04:34:48;94323.16;;;8.84;43.50
6393;BME280;3229;42.674;23.282;2023-04-07T04:37:15;94314.28;;;8.88;43.46
6393;BME280;3229;42.674;23.282;2023-04-07T04:39:41;94318.97;;;8.93;43.34
6393;BME280;3229;42.674;23.282;2023-04-07T04:42:08;94325.41;;;8.97;43.32
6393;BME280;3229;42.674;23.282;2023-04-07T04:44:35;94321.38;;;9.04;43.19
6393;BME280;3229;42.674;23.282;2023-04-07T04:47:02;94328.63;;;9.09;43.09
6393;BME280;3229;42.674;23.282;2023-04-07T04:49:32;94326.03;;;9.18;43.02
6393;BME280;3229;42.674;23.282;2023-04-07T04:52:01;94329.38;;;9.28;42.91
6393;BME280;3229;42.674;23.282;2023-04-07T04:54:30;94323.44;;;9.38;42.85
6393;BME280;3229;42.674;23.282;2023-04-07T04:56:57;94319.66;;;9.42;42.43
6393;BME280;3229;42.674;23.282;2023-04-07T04:59:27;94325.78;;;9.59;42.67
6393;BME280;3229;42.674;23.282;2023-04-07T05:01:54;94334.88;;;10.26;75.78
6393;BME280;3229;42.674;23.282;2023-04-07T05:04:21;94338.19;;;11.16;76.43
6393;BME280;3229;42.674;23.282;2023-04-07T05:06:49;94337.47;;;11.84;70.60
6393;BME280;3229;42.674;23.282;2023-04-07T05:09:19;94335.47;;;12.12;65.43
6393;BME280;3229;42.674;23.282;2023-04-07T05:11:46;94342.25;;;12.37;69.12
6393;BME280;3229;42.674;23.282;2023-04-07T05:14:13;94346.47;;;13.20;71.65
6393;BME280;3229;42.674;23.282;2023-04-07T05:16:40;94343.84;;;14.16;69.09
6393;BME280;3229;42.674;23.282;2023-04-07T05:19:08;94356.16;;;15.06;66.14
6393;BME280;3229;42.674;23.282;2023-04-07T05:21:37;94349.19;;;15.82;62.90
6393;BME280;3229;42.674;23.282;2023-04-07T05:24:05;94346.28;;;16.36;60.25
6393;BME280;3229;42.674;23.282;2023-04-07T05:26:34;94352.28;;;16.58;58.23
6393;BME280;3229;42.674;23.282;2023-04-07T05:29:01;94356.47;;;16.59;56.58
6393;BME280;3229;42.674;23.282;2023-04-07T05:31:28;94355.22;;;16.55;55.08
6393;BME280;3229;42.674;23.282;2023-04-07T05:33:57;94361.09;;;16.49;54.22
6393;BME280;3229;42.674;23.282;2023-04-07T05:36:24;94356.88;;;16.41;53.00
6393;BME280;3229;42.674;23.282;2023-04-07T05:38:52;94357.97;;;16.32;52.17
6393;BME280;3229;42.674;23.282;2023-04-07T05:41:18;94355.66;;;16.22;51.46
6393;BME280;3229;42.674;23.282;2023-04-07T05:43:47;94356.91;;;16.12;50.51
6393;BME280;3229;42.674;23.282;2023-04-07T05:46:13;94353.63;;;16.03;49.67
6393;BME280;3229;42.674;23.282;2023-04-07T05:48:40;94365.19;;;15.92;49.16
6393;BME280;3229;42.674;23.282;2023-04-07T05:51:07;94340.50;;;15.68;48.44
6393;BME280;3229;42.674;23.282;2023-04-07T05:53:34;94339.28;;;15.56;47.44
6393;BME280;3229;42.674;23.282;2023-04-07T05:56:02;94342.28;;;15.45;46.76
6393;BME280;3229;42.674;23.282;2023-04-07T05:58:31;94356.63;;;15.47;46.42
6393;BME280;3229;42.674;23.282;2023-04-07T06:01:00;94368.06;;;15.45;45.86
6393;BME280;3229;42.674;23.282;2023-04-07T06:03:27;94362.56;;;15.48;45.46
6393;BME280;3229;42.674;23.282;2023-04-07T06:05:54;94366.25;;;15.68;44.81
6393;BME280;3229;42.674;23.282;2023-04-07T06:08:23;94357.84;;;15.89;44.58
6393;BME280;3229;42.674;23.282;2023-04-07T06:10:50;94358.31;;;16.14;44.14
6393;BME280;3229;42.674;23.282;2023-04-07T06:13:17;94355.19;;;16.34;43.61
6393;BME280;3229;42.674;23.282;2023-04-07T06:15:44;94360.19;;;16.56;43.47
6393;BME280;3229;42.674;23.282;2023-04-07T06:18:13;94362.66;;;16.79;42.74
6393;BME280;3229;42.674;23.282;2023-04-07T06:20:42;94366.16;;;17.15;42.40
6393;BME280;3229;42.674;23.282;2023-04-07T06:23:09;94361.38;;;17.68;41.75
6393;BME280;3229;42.674;23.282;2023-04-07T06:25:37;94357.53;;;18.20;41.22
6393;BME280;3229;42.674;23.282;2023-04-07T06:28:08;94363.22;;;18.56;40.90
6393;BME280;3229;42.674;23.282;2023-04-07T06:30:36;94350.78;;;18.93;40.57
6393;BME280;3229;42.674;23.282;2023-04-07T06:33:03;94354.19;;;19.34;40.13
6393;BME280;3229;42.674;23.282;2023-04-07T06:35:38;94350.41;;;19.76;39.71
6393;BME280;3229;42.674;23.282;2023-04-07T06:38:06;94359.19;;;20.40;39.13
6393;BME280;3229;42.674;23.282;2023-04-07T06:40:33;94355.00;;;21.15;38.99
6393;BME280;3229;42.674;23.282;2023-04-07T06:43:00;94355.78;;;22.09;38.83
6393;BME280;3229;42.674;23.282;2023-04-07T06:45:28;94325.03;;;22.85;38.29
6393;BME280;3229;42.674;23.282;2023-04-07T06:47:55;94359.56;;;23.99;37.87
6393;BME280;3229;42.674;23.282;2023-04-07T06:50:22;94247.50;;;23.86;36.79
6393;BME280;3229;42.674;23.282;2023-04-07T06:52:50;94370.41;;;25.12;36.06
6393;BME280;3229;42.674;23.282;2023-04-07T06:55:17;94365.63;;;25.54;35.32
6393;BME280;3229;42.674;23.282;2023-04-07T06:57:43;94372.44;;;25.89;35.33
6393;BME280;3229;42.674;23.282;2023-04-07T07:00:11;94375.47;;;26.19;34.80
6393;BME280;3229;42.674;23.282;2023-04-07T07:02:37;94382.66;;;26.46;34.52
6393;BME280;3229;42.674;23.282;2023-04-07T07:05:05;94378.78;;;26.75;33.80
6393;BME280;3229;42.674;23.282;2023-04-07T07:07:32;94376.66;;;27.21;33.67
6393;BME280;3229;42.674;23.282;2023-04-07T07:10:00;94377.13;;;27.72;33.31
6393;BME280;3229;42.674;23.282;2023-04-07T07:12:27;94388.44;;;28.20;32.94
6393;BME280;3229;42.674;23.282;2023-04-07T07:14:54;94387.56;;;28.52;32.48
6393;BME280;3229;42.674;23.282;2023-04-07T07:17:21;94379.25;;;28.81;32.31
6393;BME280;3229;42.674;23.282;2023-04-07T07:19:48;94386.19;;;29.12;32.50
6393;BME280;3229;42.674;23.282;2023-04-07T07:22:15;94381.72;;;29.18;32.37
6393;BME280;3229;42.674;23.282;2023-04-07T07:24:41;94391.69;;;29.06;32.37
6393;BME280;3229;42.674;23.282;2023-04-07T07:27:09;94393.59;;;29.15;32.16
6393;BME280;3229;42.674;23.282;2023-04-07T07:29:36;94401.22;;;29.17;31.70
6393;BME280;3229;42.674;23.282;2023-04-07T07:32:03;94397.50;;;28.97;31.95
6393;BME280;3229;42.674;23.282;2023-04-07T07:34:30;94404.50;;;28.71;32.29
6393;BME280;3229;42.674;23.282;2023-04-07T07:36:57;94393.31;;;28.39;32.37
6393;BME280;3229;42.674;23.282;2023-04-07T07:39:24;94405.19;;;28.04;32.10
6393;BME280;3229;42.674;23.282;2023-04-07T07:41:51;94402.03;;;27.70;32.07
6393;BME280;3229;42.674;23.282;2023-04-07T07:44:21;94398.84;;;27.36;32.01
6393;BME280;3229;42.674;23.282;2023-04-07T07:46:48;94409.56;;;27.07;32.17
6393;BME280;3229;42.674;23.282;2023-04-07T07:49:15;94417.41;;;26.80;31.67
6393;BME280;3229;42.674;23.282;2023-04-07T07:51:42;94414.50;;;26.55;31.94
6393;BME280;3229;42.674;23.282;2023-04-07T07:54:10;94416.59;;;26.36;31.48
6393;BME280;3229;42.674;23.282;2023-04-07T07:56:37;94409.25;;;26.16;31.71
6393;BME280;3229;42.674;23.282;2023-04-07T07:59:04;94406.88;;;25.97;31.50
6393;BME280;3229;42.674;23.282;2023-04-07T08:01:33;94417.28;;;25.75;31.73
6393;BME280;3229;42.674;23.282;2023-04-07T08:04:00;94408.47;;;25.48;31.29
6393;BME280;3229;42.674;23.282;2023-04-07T08:06:27;94403.81;;;25.21;31.31
6393;BME280;3229;42.674;23.282;2023-04-07T08:08:55;94411.22;;;24.96;31.43
6393;BME280;3229;42.674;23.282;2023-04-07T08:11:23;94421.03;;;24.77;31.42
6393;BME280;3229;42.674;23.282;2023-04-07T08:13:50;94405.38;;;24.65;31.44
6393;BME280;3229;42.674;23.282;2023-04-07T08:16:18;94399.84;;;24.62;31.10
6393;BME280;3229;42.674;23.282;2023-04-07T08:18:46;94397.03;;;24.80;31.48
6393;BME280;3229;42.674;23.282;2023-04-07T08:21:13;94401.91;;;25.17;31.70
6393;BME280;3229;42.674;23.282;2023-04-07T08:23:40;94408.59;;;25.24;31.79
6393;BME280;3229;42.674;23.282;2023-04-07T08:26:07;94387.84;;;25.06;31.68
6393;BME280;3229;42.674;23.282;2023-04-07T08:28:33;94409.81;;;25.05;31.71
6393;BME280;3229;42.674;23.282;2023-04-07T08:31:00;94412.91;;;24.90;31.13
6393;BME280;3229;42.674;23.282;2023-04-07T08:33:27;94407.88;;;24.72;31.17
6393;BME280;3229;42.674;23.282;2023-04-07T08:35:55;94392.94;;;24.44;31.25
6393;BME280;3229;42.674;23.282;2023-04-07T08:38:22;94409.28;;;24.39;31.18
6393;BME280;3229;42.674;23.282;2023-04-07T08:40:53;94401.56;;;24.21;31.12
6393;BME280;3229;42.674;23.282;2023-04-07T08:43:25;94403.53;;;24.14;31.25
6393;BME280;3229;42.674;23.282;2023-04-07T08:45:56;94408.72;;;24.25;30.66
6393;BME280;3229;42.674;23.282;2023-04-07T08:48:23;94377.16;;;24.27;31.16
6393;BME280;3229;42.674;23.282;2023-04-07T08:50:51;94398.50;;;24.47;30.71
6393;BME280;3229;42.674;23.282;2023-04-07T08:53:23;94380.66;;;24.33;30.68
6393;BME280;3229;42.674;23.282;2023-04-07T08:55:54;94401.47;;;24.27;30.68
6393;BME280;3229;42.674;23.282;2023-04-07T08:58:21;94409.66;;;24.19;30.50
6393;BME280;3229;42.674;23.282;2023-04-07T09:00:49;94407.38;;;24.23;30.70
6393;BME280;3229;42.674;23.282;2023-04-07T09:03:16;94410.75;;;24.35;30.61
6393;BME280;3229;42.674;23.282;2023-04-07T09:05:44;94395.22;;;24.40;30.58
6393;BME280;3229;42.674;23.282;2023-04-07T09:08:11;94400.19;;;24.53;30.45
6393;BME280;3229;42.674;23.282;2023-04-07T09:10:40;94403.94;;;24.58;30.24
6393;BME280;3229;42.674;23.282;2023-04-07T09:13:06;94396.44;;;24.49;30.75
6393;BME280;3229;42.674;23.282;2023-04-07T09:15:34;94397.69;;;24.47;30.01
6393;BME280;3229;42.674;23.282;2023-04-07T09:18:01;94395.56;;;24.32;30.02
6393;BME280;3229;42.674;23.282;2023-04-07T09:20:57;94405.53;;;24.35;29.79
6393;BME280;3229;42.674;23.282;2023-04-07T09:23:31;94408.28;;;24.28;29.98
6393;BME280;3229;42.674;23.282;2023-04-07T09:26:17;94407.03;;;24.19;29.78
6393;BME280;3229;42.674;23.282;2023-04-07T09:28:45;94407.03;;;24.08;29.93
6393;BME280;3229;42.674;23.282;2023-04-07T09:31:12;94409.66;;;23.96;30.06
6393;BME280;3229;42.674;23.282;2023-04-07T09:33:39;94407.63;;;23.86;29.79
6393;BME280;3229;42.674;23.282;2023-04-07T09:36:06;94418.63;;;23.76;29.91
6393;BME280;3229;42.674;23.282;2023-04-07T09:38:34;94428.03;;;23.66;29.77
6393;BME280;3229;42.674;23.282;2023-04-07T09:41:09;94413.13;;;23.54;29.85
6393;BME280;3229;42.674;23.282;2023-04-07T09:43:38;94420.94;;;23.43;30.04
6393;BME280;3229;42.674;23.282;2023-04-07T09:46:13;94408.63;;;23.20;29.95
6393;BME280;3229;42.674;23.282;2023-04-07T09:48:40;94420.81;;;23.08;30.15
6393;BME280;3229;42.674;23.282;2023-04-07T09:51:09;94425.06;;;22.90;30.18
6393;BME280;3229;42.674;23.282;2023-04-07T09:53:44;94418.41;;;22.76;30.28
6393;BME280;3229;42.674;23.282;2023-04-07T09:56:14;94427.03;;;22.76;30.34
6393;BME280;3229;42.674;23.282;2023-04-07T09:58:43;94407.03;;;22.70;30.23
6393;BME280;3229;42.674;23.282;2023-04-07T10:01:11;94423.47;;;22.89;30.09
6393;BME280;3229;42.674;23.282;2023-04-07T10:03:38;94417.16;;;22.97;30.00
6393;BME280;3229;42.674;23.282;2023-04-07T10:06:06;94381.59;;;22.84;29.91
6393;BME280;3229;42.674;23.282;2023-04-07T10:08:34;94396.00;;;22.87;29.81
6393;BME280;3229;42.674;23.282;2023-04-07T10:11:02;94418.28;;;23.01;29.80
6393;BME280;3229;42.674;23.282;2023-04-07T10:13:32;94422.34;;;22.97;30.12
6393;BME280;3229;42.674;23.282;2023-04-07T10:16:02;94417.88;;;22.86;29.79
6393;BME280;3229;42.674;23.282;2023-04-07T10:18:30;94409.88;;;22.69;29.97
6393;BME280;3229;42.674;23.282;2023-04-07T10:20:59;94416.59;;;22.58;30.15
6393;BME280;3229;42.674;23.282;2023-04-07T10:23:35;94424.22;;;22.41;30.07
6393;BME280;3229;42.674;23.282;2023-04-07T10:26:05;94417.78;;;22.25;30.28
6393;BME280;3229;42.674;23.282;2023-04-07T10:28:39;94363.34;;;21.74;30.35
6393;BME280;3229;42.674;23.282;2023-04-07T10:31:10;94423.59;;;22.02;30.47
6393;BME280;3229;42.674;23.282;2023-04-07T10:33:45;94417.50;;;21.90;30.47
6393;BME280;3229;42.674;23.282;2023-04-07T10:36:13;94427.75;;;21.85;30.67
6393;BME280;3229;42.674;23.282;2023-04-07T10:38:41;94426.41;;;21.76;30.69
6393;BME280;3229;42.674;23.282;2023-04-07T10:41:33;94435.50;;;21.67;30.42
6393;BME280;3229;42.674;23.282;2023-04-07T10:44:03;94441.97;;;21.58;30.60
6393;BME280;3229;42.674;23.282;2023-04-07T10:47:02;94436.88;;;21.44;30.79
6393;BME280;3229;42.674;23.282;2023-04-07T10:49:30;94429.47;;;21.41;30.79
6393;BME280;3229;42.674;23.282;2023-04-07T10:52:22;94432.94;;;21.35;30.84
6393;BME280;3229;42.674;23.282;2023-04-07T10:58:20;94434.97;;;21.20;30.90
6393;BME280;3229;42.674;23.282;2023-04-07T11:01:17;94440.47;;;21.12;30.90
6393;BME280;3229;42.674;23.282;2023-04-07T11:03:56;94434.91;;;21.01;30.98
6393;BME280;3229;42.674;23.282;2023-04-07T11:06:23;94439.34;;;20.94;31.03
6393;BME280;3229;42.674;23.282;2023-04-07T11:08:51;94442.75;;;20.88;31.05
6393;BME280;3229;42.674;23.282;2023-04-07T11:14:03;94444.00;;;20.86;31.15
6393;BME280;3229;42.674;23.282;2023-04-07T11:16:41;94444.59;;;20.81;31.21
6393;BME280;3229;42.674;23.282;2023-04-07T11:19:10;94431.47;;;20.69;31.09
6393;BME280;3229;42.674;23.282;2023-04-07T11:21:38;94442.47;;;20.65;31.31
6393;BME280;3229;42.674;23.282;2023-04-07T11:24:05;94440.50;;;20.60;31.38
6393;BME280;3229;42.674;23.282;2023-04-07T11:26:39;94407.56;;;20.34;31.41
6393;BME280;3229;42.674;23.282;2023-04-07T11:29:06;94438.91;;;20.52;31.44
6393;BME280;3229;42.674;23.282;2023-04-07T11:31:33;94443.09;;;20.47;31.58
6393;BME280;3229;42.674;23.282;2023-04-07T11:34:03;94440.50;;;20.47;31.65
6393;BME280;3229;42.674;23.282;2023-04-07T11:36:31;94444.13;;;20.39;31.33
6393;BME280;3229;42.674;23.282;2023-04-07T11:38:58;94458.47;;;20.42;31.61
6393;BME280;3229;42.674;23.282;2023-04-07T11:41:27;94447.13;;;20.36;31.64
6393;BME280;3229;42.674;23.282;2023-04-07T11:44:09;94455.13;;;20.28;31.62
6393;BME280;3229;42.674;23.282;2023-04-07T11:46:50;94453.16;;;20.17;31.85
6393;BME280;3229;42.674;23.282;2023-04-07T11:49:19;94444.97;;;20.07;31.80
6393;BME280;3229;42.674;23.282;2023-04-07T11:51:47;94450.78;;;20.02;32.00
6393;BME280;3229;42.674;23.282;2023-04-07T11:54:14;94454.78;;;19.98;31.88
6393;BME280;3229;42.674;23.282;2023-04-07T11:56:43;94451.78;;;19.94;31.87
6393;BME280;3229;42.674;23.282;2023-04-07T11:59:18;94448.59;;;19.92;31.92
6393;BME280;3229;42.674;23.282;2023-04-07T12:01:47;94451.41;;;19.91;32.10
6393;BME280;3229;42.674;23.282;2023-04-07T12:04:16;94443.41;;;19.92;31.96
6393;BME280;3229;42.674;23.282;2023-04-07T12:06:46;94444.59;;;19.96;31.99
6393;BME280;3229;42.674;23.282;2023-04-07T12:09:27;94428.41;;;19.94;32.02
6393;BME280;3229;42.674;23.282;2023-04-07T12:11:55;94443.59;;;20.04;31.97
6393;BME280;3229;42.674;23.282;2023-04-07T12:14:22;94425.03;;;19.94;31.82
6393;BME280;3229;42.674;23.282;2023-04-07T12:16:49;94444.41;;;20.04;31.83
6393;BME280;3229;42.674;23.282;2023-04-07T12:19:17;94439.81;;;20.00;31.92
6393;BME280;3229;42.674;23.282;2023-04-07T12:21:45;94442.41;;;20.00;32.02
6393;BME280;3229;42.674;23.282;2023-04-07T12:24:12;94437.22;;;19.93;32.01
6393;BME280;3229;42.674;23.282;2023-04-07T12:26:39;94399.72;;;19.63;32.07
6393;BME280;3229;42.674;23.282;2023-04-07T12:29:06;94440.41;;;19.89;31.97
6393;BME280;3229;42.674;23.282;2023-04-07T12:31:33;94451.19;;;19.86;32.16
6393;BME280;3229;42.674;23.282;2023-04-07T12:34:02;94453.41;;;19.82;32.38
6393;BME280;3229;42.674;23.282;2023-04-07T12:36:28;94443.81;;;19.76;32.05
6393;BME280;3229;42.674;23.282;2023-04-07T12:38:57;94438.22;;;19.72;32.17
6393;BME280;3229;42.674;23.282;2023-04-07T12:41:24;94436.84;;;19.70;32.16
6393;BME280;3229;42.674;23.282;2023-04-07T12:43:52;94443.22;;;19.67;32.28
6393;BME280;3229;42.674;23.282;2023-04-07T12:46:18;94431.84;;;19.62;32.28
6393;BME280;3229;42.674;23.282;2023-04-07T12:48:45;94425.63;;;19.56;32.06
6393;BME280;3229;42.674;23.282;2023-04-07T12:51:13;94434.78;;;19.59;32.11
6393;BME280;3229;42.674;23.282;2023-04-07T12:53:40;94438.41;;;19.64;32.14
6393;BME280;3229;42.674;23.282;2023-04-07T12:56:09;94428.03;;;19.58;32.50
6393;BME280;3229;42.674;23.282;2023-04-07T12:58:37;94441.63;;;19.66;32.29
6393;BME280;3229;42.674;23.282;2023-04-07T13:01:04;94443.00;;;19.69;32.30
6393;BME280;3229;42.674;23.282;2023-04-07T13:03:31;94446.22;;;19.71;32.26
6393;BME280;3229;42.674;23.282;2023-04-07T13:05:58;94444.03;;;19.74;32.18
6393;BME280;3229;42.674;23.282;2023-04-07T13:08:26;94450.81;;;19.75;32.15
6393;BME280;3229;42.674;23.282;2023-04-07T13:10:53;94443.63;;;19.71;32.54
6393;BME280;3229;42.674;23.282;2023-04-07T13:13:21;94455.41;;;19.73;32.56
6393;BME280;3229;42.674;23.282;2023-04-07T13:15:49;94448.00;;;19.70;32.30
6393;BME280;3229;42.674;23.282;2023-04-07T13:18:16;94453.97;;;19.64;32.38
6393;BME280;3229;42.674;23.282;2023-04-07T13:20:42;94456.19;;;19.61;32.44
6393;BME280;3229;42.674;23.282;2023-04-07T13:23:09;94464.94;;;19.53;32.44
6393;BME280;3229;42.674;23.282;2023-04-07T13:25:36;94464.91;;;19.46;32.66
6393;BME280;3229;42.674;23.282;2023-04-07T13:28:03;94457.91;;;19.34;32.74